Labuan, Malaysia
Current Conditions -  °F | °C
As of 2:00 AM on Wednesday 28 Jan 2015 (Local Time) from WBKL Reporting Station
Broken Clouds Broken Clouds  
Wind Chill: 79°   Ceiling: 14000
Heat Index: 82°   Visibility: 6mi
Dew Point: 73°   Wind: 5mph
Humidity: 83%   Direction: 60°ENE
Pressure: 29.8"   Gusts: NA
Location:  5.29°N, 115.24°E
Report Text: WBKL 271800Z 06004KT 9999 FEW010 BKN140 BKN290 26/23 Q1009
Loading
Personal Weather Stations






























Interactive Weather Map New forecast layout! Learn more

10-Day Weather Forecast

Advertisements
Track Severe Weather on mobile